sensor_id;sensor_type;location;lat;lon;timestamp;P1;durP1;ratioP1;P2;durP2;ratioP2
20976;SDS011;10647;51.016;3.720;2023-03-30T00:02:03;4.63;;;2.00;;
20976;SDS011;10647;51.016;3.720;2023-03-30T00:04:31;6.10;;;2.00;;
20976;SDS011;10647;51.016;3.720;2023-03-30T00:06:59;8.30;;;2.17;;
20976;SDS011;10647;51.016;3.720;2023-03-30T00:09:26;8.50;;;2.30;;
20976;SDS011;10647;51.016;3.720;2023-03-30T00:11:56;6.17;;;2.00;;
20976;SDS011;10647;51.016;3.720;2023-03-30T00:14:25;5.67;;;2.07;;
20976;SDS011;10647;51.016;3.720;2023-03-30T00:16:54;6.00;;;2.50;;
20976;SDS011;10647;51.016;3.720;2023-03-30T00:19:22;6.93;;;2.23;;
20976;SDS011;10647;51.016;3.720;2023-03-30T00:21:52;6.27;;;2.70;;
20976;SDS011;10647;51.016;3.720;2023-03-30T00:24:20;3.73;;;2.00;;
20976;SDS011;10647;51.016;3.720;2023-03-30T00:26:48;5.67;;;1.90;;
20976;SDS011;10647;51.016;3.720;2023-03-30T00:29:16;7.30;;;2.10;;
20976;SDS011;10647;51.016;3.720;2023-03-30T00:31:43;7.87;;;2.60;;
20976;SDS011;10647;51.016;3.720;2023-03-30T00:34:12;9.10;;;2.07;;
20976;SDS011;10647;51.016;3.720;2023-03-30T00:36:42;8.57;;;1.90;;
20976;SDS011;10647;51.016;3.720;2023-03-30T00:39:14;10.13;;;3.00;;
20976;SDS011;10647;51.016;3.720;2023-03-30T00:41:43;4.80;;;2.20;;
20976;SDS011;10647;51.016;3.720;2023-03-30T00:47:17;4.77;;;2.00;;
20976;SDS011;10647;51.016;3.720;2023-03-30T00:49:46;6.70;;;2.37;;
20976;SDS011;10647;51.016;3.720;2023-03-30T00:52:14;5.80;;;2.50;;
20976;SDS011;10647;51.016;3.720;2023-03-30T00:54:44;8.20;;;2.20;;
20976;SDS011;10647;51.016;3.720;2023-03-30T00:57:33;6.80;;;2.20;;
20976;SDS011;10647;51.016;3.720;2023-03-30T01:00:03;9.43;;;2.43;;
20976;SDS011;10647;51.016;3.720;2023-03-30T01:02:34;4.70;;;2.20;;
20976;SDS011;10647;51.016;3.720;2023-03-30T01:05:04;8.40;;;2.80;;
20976;SDS011;10647;51.016;3.720;2023-03-30T01:07:33;6.50;;;2.30;;
20976;SDS011;10647;51.016;3.720;2023-03-30T01:10:03;7.50;;;2.30;;
20976;SDS011;10647;51.016;3.720;2023-03-30T01:12:33;5.63;;;2.30;;
20976;SDS011;10647;51.016;3.720;2023-03-30T01:15:01;7.47;;;2.47;;
20976;SDS011;10647;51.016;3.720;2023-03-30T01:17:34;6.40;;;2.37;;
20976;SDS011;10647;51.016;3.720;2023-03-30T01:20:30;6.93;;;2.33;;
20976;SDS011;10647;51.016;3.720;2023-03-30T01:23:31;4.23;;;2.00;;
20976;SDS011;10647;51.016;3.720;2023-03-30T01:26:10;5.70;;;2.10;;
20976;SDS011;10647;51.016;3.720;2023-03-30T01:29:00;8.87;;;2.30;;
20976;SDS011;10647;51.016;3.720;2023-03-30T01:37:31;6.97;;;1.97;;
20976;SDS011;10647;51.016;3.720;2023-03-30T01:40:07;6.50;;;2.20;;
20976;SDS011;10647;51.016;3.720;2023-03-30T01:42:48;4.40;;;2.07;;
20976;SDS011;10647;51.016;3.720;2023-03-30T01:45:22;7.23;;;2.17;;
20976;SDS011;10647;51.016;3.720;2023-03-30T01:48:22;8.67;;;2.17;;
20976;SDS011;10647;51.016;3.720;2023-03-30T01:51:07;5.07;;;2.00;;
20976;SDS011;10647;51.016;3.720;2023-03-30T01:53:54;4.37;;;1.90;;
20976;SDS011;10647;51.016;3.720;2023-03-30T01:56:31;8.63;;;1.80;;
20976;SDS011;10647;51.016;3.720;2023-03-30T02:01:49;6.27;;;2.13;;
20976;SDS011;10647;51.016;3.720;2023-03-30T02:04:21;7.53;;;2.23;;
20976;SDS011;10647;51.016;3.720;2023-03-30T02:07:10;5.13;;;1.83;;
20976;SDS011;10647;51.016;3.720;2023-03-30T02:09:35;8.03;;;1.90;;
20976;SDS011;10647;51.016;3.720;2023-03-30T02:12:08;4.73;;;1.77;;
20976;SDS011;10647;51.016;3.720;2023-03-30T02:14:39;5.70;;;1.80;;
20976;SDS011;10647;51.016;3.720;2023-03-30T02:17:13;5.03;;;1.53;;
20976;SDS011;10647;51.016;3.720;2023-03-30T02:22:21;4.80;;;1.60;;
20976;SDS011;10647;51.016;3.720;2023-03-30T02:24:53;8.03;;;2.13;;
20976;SDS011;10647;51.016;3.720;2023-03-30T02:27:25;5.00;;;1.57;;
20976;SDS011;10647;51.016;3.720;2023-03-30T02:29:59;6.27;;;2.10;;
20976;SDS011;10647;51.016;3.720;2023-03-30T02:32:27;5.67;;;1.90;;
20976;SDS011;10647;51.016;3.720;2023-03-30T02:38:07;7.47;;;2.00;;
20976;SDS011;10647;51.016;3.720;2023-03-30T02:47:07;4.67;;;1.40;;
20976;SDS011;10647;51.016;3.720;2023-03-30T02:49:41;7.53;;;1.63;;
20976;SDS011;10647;51.016;3.720;2023-03-30T02:52:29;4.90;;;1.50;;
20976;SDS011;10647;51.016;3.720;2023-03-30T02:58:32;10.80;;;2.20;;
20976;SDS011;10647;51.016;3.720;2023-03-30T03:01:13;9.73;;;2.00;;
20976;SDS011;10647;51.016;3.720;2023-03-30T03:03:59;6.93;;;1.77;;
20976;SDS011;10647;51.016;3.720;2023-03-30T03:06:29;5.30;;;1.70;;
20976;SDS011;10647;51.016;3.720;2023-03-30T03:08:57;3.97;;;1.63;;
20976;SDS011;10647;51.016;3.720;2023-03-30T03:11:26;8.13;;;1.97;;
20976;SDS011;10647;51.016;3.720;2023-03-30T03:13:53;6.70;;;1.63;;
20976;SDS011;10647;51.016;3.720;2023-03-30T03:16:21;7.07;;;1.50;;
20976;SDS011;10647;51.016;3.720;2023-03-30T03:18:49;6.53;;;1.57;;
20976;SDS011;10647;51.016;3.720;2023-03-30T03:21:17;10.93;;;1.63;;
20976;SDS011;10647;51.016;3.720;2023-03-30T03:23:48;4.73;;;1.60;;
20976;SDS011;10647;51.016;3.720;2023-03-30T03:26:15;6.07;;;1.50;;
20976;SDS011;10647;51.016;3.720;2023-03-30T03:28:45;7.17;;;1.47;;
20976;SDS011;10647;51.016;3.720;2023-03-30T03:31:13;8.93;;;2.03;;
20976;SDS011;10647;51.016;3.720;2023-03-30T03:33:41;4.93;;;1.50;;
20976;SDS011;10647;51.016;3.720;2023-03-30T03:36:11;7.27;;;1.83;;
20976;SDS011;10647;51.016;3.720;2023-03-30T03:38:40;4.87;;;1.50;;
20976;SDS011;10647;51.016;3.720;2023-03-30T03:41:07;7.60;;;1.80;;
20976;SDS011;10647;51.016;3.720;2023-03-30T03:43:35;11.20;;;1.77;;
20976;SDS011;10647;51.016;3.720;2023-03-30T03:46:02;5.80;;;1.83;;
20976;SDS011;10647;51.016;3.720;2023-03-30T03:48:30;8.17;;;2.10;;
20976;SDS011;10647;51.016;3.720;2023-03-30T03:50:57;6.40;;;1.90;;
20976;SDS011;10647;51.016;3.720;2023-03-30T03:53:26;6.63;;;1.83;;
20976;SDS011;10647;51.016;3.720;2023-03-30T03:55:54;7.17;;;2.07;;
20976;SDS011;10647;51.016;3.720;2023-03-30T03:58:22;7.80;;;2.50;;
20976;SDS011;10647;51.016;3.720;2023-03-30T04:00:51;7.73;;;1.83;;
20976;SDS011;10647;51.016;3.720;2023-03-30T04:03:30;7.73;;;2.10;;
20976;SDS011;10647;51.016;3.720;2023-03-30T04:05:59;6.53;;;1.80;;
20976;SDS011;10647;51.016;3.720;2023-03-30T04:08:27;8.13;;;1.70;;
20976;SDS011;10647;51.016;3.720;2023-03-30T04:10:56;7.50;;;1.60;;
20976;SDS011;10647;51.016;3.720;2023-03-30T04:16:19;4.77;;;1.33;;
20976;SDS011;10647;51.016;3.720;2023-03-30T04:18:46;5.43;;;1.70;;
20976;SDS011;10647;51.016;3.720;2023-03-30T04:21:14;5.03;;;1.50;;
20976;SDS011;10647;51.016;3.720;2023-03-30T04:23:43;9.03;;;1.57;;
20976;SDS011;10647;51.016;3.720;2023-03-30T04:26:12;6.37;;;1.40;;
20976;SDS011;10647;51.016;3.720;2023-03-30T04:28:40;5.80;;;1.53;;
20976;SDS011;10647;51.016;3.720;2023-03-30T04:31:08;7.43;;;1.70;;
20976;SDS011;10647;51.016;3.720;2023-03-30T04:33:38;9.20;;;2.00;;
20976;SDS011;10647;51.016;3.720;2023-03-30T04:36:08;7.90;;;1.70;;
20976;SDS011;10647;51.016;3.720;2023-03-30T04:38:39;8.60;;;1.93;;
20976;SDS011;10647;51.016;3.720;2023-03-30T04:41:07;9.07;;;1.97;;
20976;SDS011;10647;51.016;3.720;2023-03-30T04:43:35;7.73;;;2.80;;
20976;SDS011;10647;51.016;3.720;2023-03-30T04:46:02;9.73;;;2.33;;
20976;SDS011;10647;51.016;3.720;2023-03-30T04:48:30;7.50;;;1.97;;
20976;SDS011;10647;51.016;3.720;2023-03-30T04:51:24;10.83;;;2.03;;
20976;SDS011;10647;51.016;3.720;2023-03-30T04:53:52;12.37;;;2.53;;
20976;SDS011;10647;51.016;3.720;2023-03-30T04:56:21;7.57;;;2.20;;
20976;SDS011;10647;51.016;3.720;2023-03-30T04:58:50;8.47;;;2.50;;
20976;SDS011;10647;51.016;3.720;2023-03-30T05:01:20;9.70;;;2.20;;
20976;SDS011;10647;51.016;3.720;2023-03-30T05:03:48;12.47;;;2.20;;
20976;SDS011;10647;51.016;3.720;2023-03-30T05:06:16;12.20;;;2.10;;
20976;SDS011;10647;51.016;3.720;2023-03-30T05:08:44;10.20;;;2.27;;
20976;SDS011;10647;51.016;3.720;2023-03-30T05:11:11;13.30;;;2.17;;
20976;SDS011;10647;51.016;3.720;2023-03-30T05:13:42;10.43;;;2.20;;
20976;SDS011;10647;51.016;3.720;2023-03-30T05:16:11;14.27;;;2.30;;
20976;SDS011;10647;51.016;3.720;2023-03-30T05:18:38;13.07;;;1.80;;
20976;SDS011;10647;51.016;3.720;2023-03-30T05:21:06;11.00;;;1.87;;
20976;SDS011;10647;51.016;3.720;2023-03-30T05:23:34;10.10;;;2.03;;
20976;SDS011;10647;51.016;3.720;2023-03-30T05:26:01;11.47;;;2.07;;
20976;SDS011;10647;51.016;3.720;2023-03-30T05:28:29;14.27;;;2.20;;
20976;SDS011;10647;51.016;3.720;2023-03-30T05:30:56;12.47;;;2.23;;
20976;SDS011;10647;51.016;3.720;2023-03-30T05:33:24;13.37;;;2.10;;
20976;SDS011;10647;51.016;3.720;2023-03-30T05:35:52;13.40;;;2.10;;
20976;SDS011;10647;51.016;3.720;2023-03-30T05:38:20;11.77;;;1.90;;
20976;SDS011;10647;51.016;3.720;2023-03-30T05:40:53;11.10;;;2.23;;
20976;SDS011;10647;51.016;3.720;2023-03-30T05:43:22;12.20;;;2.37;;
20976;SDS011;10647;51.016;3.720;2023-03-30T05:45:52;12.67;;;2.53;;
20976;SDS011;10647;51.016;3.720;2023-03-30T05:48:22;17.30;;;2.60;;
20976;SDS011;10647;51.016;3.720;2023-03-30T05:50:57;19.90;;;3.37;;
20976;SDS011;10647;51.016;3.720;2023-03-30T05:53:30;16.10;;;2.80;;
20976;SDS011;10647;51.016;3.720;2023-03-30T05:55:58;15.13;;;2.40;;
20976;SDS011;10647;51.016;3.720;2023-03-30T05:58:27;15.13;;;2.20;;
20976;SDS011;10647;51.016;3.720;2023-03-30T06:00:58;13.17;;;2.30;;
20976;SDS011;10647;51.016;3.720;2023-03-30T06:03:26;16.70;;;2.80;;
20976;SDS011;10647;51.016;3.720;2023-03-30T06:05:53;23.67;;;3.10;;
20976;SDS011;10647;51.016;3.720;2023-03-30T06:08:22;21.83;;;2.90;;
20976;SDS011;10647;51.016;3.720;2023-03-30T06:10:52;18.73;;;2.83;;
20976;SDS011;10647;51.016;3.720;2023-03-30T06:13:21;23.13;;;3.20;;
20976;SDS011;10647;51.016;3.720;2023-03-30T06:15:49;15.87;;;2.60;;
20976;SDS011;10647;51.016;3.720;2023-03-30T06:18:16;21.10;;;3.27;;
20976;SDS011;10647;51.016;3.720;2023-03-30T06:20:47;15.67;;;2.83;;
20976;SDS011;10647;51.016;3.720;2023-03-30T06:23:22;16.93;;;3.40;;
20976;SDS011;10647;51.016;3.720;2023-03-30T06:25:50;16.77;;;2.80;;
20976;SDS011;10647;51.016;3.720;2023-03-30T06:28:18;19.27;;;3.10;;
20976;SDS011;10647;51.016;3.720;2023-03-30T06:30:46;18.80;;;3.13;;
20976;SDS011;10647;51.016;3.720;2023-03-30T06:33:14;20.57;;;3.30;;
20976;SDS011;10647;51.016;3.720;2023-03-30T06:35:49;21.83;;;3.23;;
20976;SDS011;10647;51.016;3.720;2023-03-30T06:38:19;20.00;;;3.07;;
20976;SDS011;10647;51.016;3.720;2023-03-30T06:40:48;19.13;;;3.00;;
20976;SDS011;10647;51.016;3.720;2023-03-30T06:43:19;19.77;;;2.80;;
20976;SDS011;10647;51.016;3.720;2023-03-30T06:45:50;19.27;;;2.47;;
20976;SDS011;10647;51.016;3.720;2023-03-30T06:48:38;28.27;;;3.80;;
20976;SDS011;10647;51.016;3.720;2023-03-30T06:51:06;18.57;;;3.00;;
20976;SDS011;10647;51.016;3.720;2023-03-30T06:53:34;26.17;;;4.30;;
20976;SDS011;10647;51.016;3.720;2023-03-30T06:56:01;20.23;;;3.83;;
20976;SDS011;10647;51.016;3.720;2023-03-30T06:58:29;20.20;;;3.30;;
20976;SDS011;10647;51.016;3.720;2023-03-30T07:00:57;23.07;;;4.03;;
20976;SDS011;10647;51.016;3.720;2023-03-30T07:03:24;20.00;;;3.13;;
20976;SDS011;10647;51.016;3.720;2023-03-30T07:05:53;20.10;;;3.37;;
20976;SDS011;10647;51.016;3.720;2023-03-30T07:08:21;21.03;;;3.30;;
20976;SDS011;10647;51.016;3.720;2023-03-30T07:10:49;23.17;;;3.73;;
20976;SDS011;10647;51.016;3.720;2023-03-30T07:13:17;22.03;;;3.87;;
20976;SDS011;10647;51.016;3.720;2023-03-30T07:15:44;23.87;;;3.47;;
20976;SDS011;10647;51.016;3.720;2023-03-30T07:18:13;25.70;;;3.23;;
20976;SDS011;10647;51.016;3.720;2023-03-30T07:20:40;26.77;;;3.93;;
20976;SDS011;10647;51.016;3.720;2023-03-30T07:23:10;20.87;;;4.23;;
20976;SDS011;10647;51.016;3.720;2023-03-30T07:25:38;28.67;;;4.20;;
20976;SDS011;10647;51.016;3.720;2023-03-30T07:28:06;20.50;;;3.57;;
20976;SDS011;10647;51.016;3.720;2023-03-30T07:30:34;21.83;;;3.50;;
20976;SDS011;10647;51.016;3.720;2023-03-30T07:33:03;25.13;;;4.00;;
20976;SDS011;10647;51.016;3.720;2023-03-30T07:35:31;28.77;;;4.67;;
20976;SDS011;10647;51.016;3.720;2023-03-30T07:37:58;26.47;;;3.53;;
20976;SDS011;10647;51.016;3.720;2023-03-30T07:40:26;23.53;;;4.17;;
20976;SDS011;10647;51.016;3.720;2023-03-30T07:42:54;25.33;;;3.80;;
20976;SDS011;10647;51.016;3.720;2023-03-30T07:45:21;25.40;;;4.13;;
20976;SDS011;10647;51.016;3.720;2023-03-30T07:47:49;31.40;;;3.80;;
20976;SDS011;10647;51.016;3.720;2023-03-30T07:50:16;25.00;;;4.00;;
20976;SDS011;10647;51.016;3.720;2023-03-30T07:52:44;24.60;;;3.63;;
20976;SDS011;10647;51.016;3.720;2023-03-30T07:55:11;22.33;;;2.93;;
20976;SDS011;10647;51.016;3.720;2023-03-30T07:57:40;27.07;;;4.10;;
20976;SDS011;10647;51.016;3.720;2023-03-30T08:00:07;26.97;;;3.83;;
20976;SDS011;10647;51.016;3.720;2023-03-30T08:02:37;20.13;;;3.40;;
20976;SDS011;10647;51.016;3.720;2023-03-30T08:05:05;26.67;;;3.87;;
20976;SDS011;10647;51.016;3.720;2023-03-30T08:07:32;24.93;;;4.17;;
20976;SDS011;10647;51.016;3.720;2023-03-30T08:10:01;27.93;;;3.60;;
20976;SDS011;10647;51.016;3.720;2023-03-30T08:12:29;32.13;;;4.07;;
20976;SDS011;10647;51.016;3.720;2023-03-30T08:14:56;26.37;;;3.90;;
20976;SDS011;10647;51.016;3.720;2023-03-30T08:17:24;25.90;;;4.20;;
20976;SDS011;10647;51.016;3.720;2023-03-30T08:19:51;24.67;;;4.30;;
20976;SDS011;10647;51.016;3.720;2023-03-30T08:22:21;31.87;;;4.43;;
20976;SDS011;10647;51.016;3.720;2023-03-30T08:24:48;26.43;;;4.50;;
20976;SDS011;10647;51.016;3.720;2023-03-30T08:27:16;19.57;;;3.70;;
20976;SDS011;10647;51.016;3.720;2023-03-30T08:29:43;22.07;;;3.47;;
20976;SDS011;10647;51.016;3.720;2023-03-30T08:32:11;22.20;;;3.73;;
20976;SDS011;10647;51.016;3.720;2023-03-30T08:34:39;29.73;;;4.43;;
20976;SDS011;10647;51.016;3.720;2023-03-30T08:37:07;23.50;;;3.43;;
20976;SDS011;10647;51.016;3.720;2023-03-30T08:39:35;28.80;;;4.33;;
20976;SDS011;10647;51.016;3.720;2023-03-30T08:42:09;25.17;;;3.97;;
20976;SDS011;10647;51.016;3.720;2023-03-30T08:44:54;18.03;;;3.17;;
20976;SDS011;10647;51.016;3.720;2023-03-30T08:47:28;19.53;;;3.73;;
20976;SDS011;10647;51.016;3.720;2023-03-30T08:52:49;24.97;;;3.93;;
20976;SDS011;10647;51.016;3.720;2023-03-30T08:55:23;20.53;;;3.37;;
20976;SDS011;10647;51.016;3.720;2023-03-30T08:58:02;18.03;;;2.53;;
20976;SDS011;10647;51.016;3.720;2023-03-30T09:00:32;23.73;;;3.47;;
20976;SDS011;10647;51.016;3.720;2023-03-30T09:03:03;22.33;;;3.40;;
20976;SDS011;10647;51.016;3.720;2023-03-30T09:05:43;26.40;;;3.37;;
20976;SDS011;10647;51.016;3.720;2023-03-30T09:08:19;24.57;;;3.50;;
20976;SDS011;10647;51.016;3.720;2023-03-30T09:10:51;20.70;;;3.43;;
20976;SDS011;10647;51.016;3.720;2023-03-30T09:13:21;23.42;;;3.72;;
20976;SDS011;10647;51.016;3.720;2023-03-30T09:15:52;20.90;;;3.17;;
20976;SDS011;10647;51.016;3.720;2023-03-30T09:18:36;18.20;;;2.60;;
20976;SDS011;10647;51.016;3.720;2023-03-30T09:21:11;12.53;;;2.43;;
20976;SDS011;10647;51.016;3.720;2023-03-30T09:23:37;13.75;;;2.27;;
20976;SDS011;10647;51.016;3.720;2023-03-30T09:26:18;13.80;;;2.77;;
20976;SDS011;10647;51.016;3.720;2023-03-30T09:28:53;14.07;;;2.27;;
20976;SDS011;10647;51.016;3.720;2023-03-30T09:31:27;15.90;;;2.70;;
20976;SDS011;10647;51.016;3.720;2023-03-30T09:34:17;12.60;;;2.33;;
20976;SDS011;10647;51.016;3.720;2023-03-30T09:37:01;14.58;;;2.30;;
20976;SDS011;10647;51.016;3.720;2023-03-30T09:39:34;14.73;;;2.40;;
20976;SDS011;10647;51.016;3.720;2023-03-30T09:47:26;6.95;;;1.77;;
20976;SDS011;10647;51.016;3.720;2023-03-30T09:53:02;9.40;;;2.00;;
20976;SDS011;10647;51.016;3.720;2023-03-30T09:55:33;13.53;;;2.00;;
20976;SDS011;10647;51.016;3.720;2023-03-30T09:58:26;11.63;;;2.23;;
20976;SDS011;10647;51.016;3.720;2023-03-30T10:01:06;8.20;;;1.73;;
20976;SDS011;10647;51.016;3.720;2023-03-30T10:03:39;9.95;;;1.90;;
20976;SDS011;10647;51.016;3.720;2023-03-30T10:08:49;9.30;;;1.90;;
20976;SDS011;10647;51.016;3.720;2023-03-30T10:14:28;16.97;;;3.17;;
20976;SDS011;10647;51.016;3.720;2023-03-30T10:17:03;20.23;;;2.80;;
20976;SDS011;10647;51.016;3.720;2023-03-30T10:19:34;21.15;;;3.58;;
20976;SDS011;10647;51.016;3.720;2023-03-30T10:22:04;16.32;;;3.05;;
20976;SDS011;10647;51.016;3.720;2023-03-30T10:24:35;11.35;;;2.22;;
20976;SDS011;10647;51.016;3.720;2023-03-30T10:29:50;18.75;;;3.15;;
20976;SDS011;10647;51.016;3.720;2023-03-30T10:32:18;18.67;;;3.30;;
20976;SDS011;10647;51.016;3.720;2023-03-30T10:34:55;19.67;;;3.40;;
20976;SDS011;10647;51.016;3.720;2023-03-30T10:37:29;17.80;;;3.10;;
20976;SDS011;10647;51.016;3.720;2023-03-30T10:40:00;19.57;;;3.33;;
20976;SDS011;10647;51.016;3.720;2023-03-30T10:42:33;21.73;;;3.00;;
20976;SDS011;10647;51.016;3.720;2023-03-30T10:45:03;20.82;;;3.92;;
20976;SDS011;10647;51.016;3.720;2023-03-30T10:47:50;17.48;;;3.20;;
20976;SDS011;10647;51.016;3.720;2023-03-30T10:50:37;26.12;;;2.80;;
20976;SDS011;10647;51.016;3.720;2023-03-30T10:56:02;24.20;;;3.20;;
20976;SDS011;10647;51.016;3.720;2023-03-30T10:58:47;21.02;;;3.33;;
20976;SDS011;10647;51.016;3.720;2023-03-30T11:01:15;14.35;;;2.55;;
20976;SDS011;10647;51.016;3.720;2023-03-30T11:04:04;17.95;;;2.87;;
20976;SDS011;10647;51.016;3.720;2023-03-30T11:06:34;20.20;;;3.52;;
20976;SDS011;10647;51.016;3.720;2023-03-30T11:09:04;16.20;;;3.20;;
20976;SDS011;10647;51.016;3.720;2023-03-30T11:11:37;22.93;;;2.92;;
20976;SDS011;10647;51.016;3.720;2023-03-30T11:14:07;23.95;;;3.58;;
20976;SDS011;10647;51.016;3.720;2023-03-30T11:16:45;21.40;;;3.67;;
20976;SDS011;10647;51.016;3.720;2023-03-30T11:19:27;23.95;;;3.37;;
20976;SDS011;10647;51.016;3.720;2023-03-30T11:22:05;20.50;;;2.97;;
20976;SDS011;10647;51.016;3.720;2023-03-30T11:24:51;26.07;;;3.87;;
20976;SDS011;10647;51.016;3.720;2023-03-30T11:27:25;20.48;;;2.90;;
20976;SDS011;10647;51.016;3.720;2023-03-30T11:35:55;23.50;;;3.42;;
20976;SDS011;10647;51.016;3.720;2023-03-30T11:38:25;11.90;;;2.80;;
20976;SDS011;10647;51.016;3.720;2023-03-30T11:40:57;20.10;;;4.08;;
20976;SDS011;10647;51.016;3.720;2023-03-30T11:43:32;14.65;;;2.95;;
20976;SDS011;10647;51.016;3.720;2023-03-30T11:46:14;19.57;;;3.60;;
20976;SDS011;10647;51.016;3.720;2023-03-30T11:49:01;19.55;;;3.08;;
20976;SDS011;10647;51.016;3.720;2023-03-30T11:51:44;25.75;;;3.10;;
20976;SDS011;10647;51.016;3.720;2023-03-30T12:05:36;19.10;;;3.42;;
20976;SDS011;10647;51.016;3.720;2023-03-30T12:10:47;21.07;;;3.15;;
20976;SDS011;10647;51.016;3.720;2023-03-30T12:13:42;20.30;;;3.52;;
20976;SDS011;10647;51.016;3.720;2023-03-30T12:16:18;18.60;;;3.27;;
20976;SDS011;10647;51.016;3.720;2023-03-30T12:19:05;26.17;;;3.47;;
20976;SDS011;10647;51.016;3.720;2023-03-30T12:24:21;29.23;;;3.52;;
20976;SDS011;10647;51.016;3.720;2023-03-30T12:26:55;25.45;;;3.67;;
20976;SDS011;10647;51.016;3.720;2023-03-30T12:29:23;23.70;;;3.17;;
20976;SDS011;10647;51.016;3.720;2023-03-30T12:34:28;18.30;;;3.30;;
20976;SDS011;10647;51.016;3.720;2023-03-30T12:37:27;27.60;;;3.30;;
20976;SDS011;10647;51.016;3.720;2023-03-30T12:39:58;24.17;;;3.47;;
20976;SDS011;10647;51.016;3.720;2023-03-30T12:42:33;23.27;;;3.57;;
20976;SDS011;10647;51.016;3.720;2023-03-30T12:50:43;15.85;;;2.52;;
20976;SDS011;10647;51.016;3.720;2023-03-30T12:53:32;9.63;;;2.12;;
20976;SDS011;10647;51.016;3.720;2023-03-30T13:04:28;10.30;;;2.05;;
20976;SDS011;10647;51.016;3.720;2023-03-30T13:07:28;10.40;;;2.37;;
20976;SDS011;10647;51.016;3.720;2023-03-30T13:09:59;11.80;;;2.10;;
20976;SDS011;10647;51.016;3.720;2023-03-30T13:12:30;12.78;;;2.17;;
20976;SDS011;10647;51.016;3.720;2023-03-30T13:17:57;12.15;;;2.50;;
20976;SDS011;10647;51.016;3.720;2023-03-30T13:20:28;11.10;;;2.55;;
20976;SDS011;10647;51.016;3.720;2023-03-30T13:28:35;17.75;;;3.27;;
20976;SDS011;10647;51.016;3.720;2023-03-30T13:31:08;12.93;;;2.52;;
20976;SDS011;10647;51.016;3.720;2023-03-30T13:33:34;9.90;;;2.10;;
20976;SDS011;10647;51.016;3.720;2023-03-30T13:36:09;13.28;;;2.45;;
20976;SDS011;10647;51.016;3.720;2023-03-30T13:38:57;10.25;;;1.70;;
20976;SDS011;10647;51.016;3.720;2023-03-30T13:41:51;10.58;;;2.00;;
20976;SDS011;10647;51.016;3.720;2023-03-30T13:44:37;10.75;;;2.22;;
20976;SDS011;10647;51.016;3.720;2023-03-30T13:52:50;11.60;;;2.40;;
20976;SDS011;10647;51.016;3.720;2023-03-30T13:55:25;8.85;;;2.22;;
20976;SDS011;10647;51.016;3.720;2023-03-30T13:58:19;8.43;;;1.50;;
20976;SDS011;10647;51.016;3.720;2023-03-30T14:03:35;12.10;;;2.67;;
20976;SDS011;10647;51.016;3.720;2023-03-30T14:11:53;10.78;;;2.22;;
20976;SDS011;10647;51.016;3.720;2023-03-30T14:14:30;12.85;;;2.30;;
20976;SDS011;10647;51.016;3.720;2023-03-30T14:16:59;12.18;;;2.52;;
20976;SDS011;10647;51.016;3.720;2023-03-30T14:19:33;11.95;;;2.45;;
20976;SDS011;10647;51.016;3.720;2023-03-30T14:22:10;13.80;;;3.00;;
20976;SDS011;10647;51.016;3.720;2023-03-30T14:24:39;11.90;;;2.65;;
20976;SDS011;10647;51.016;3.720;2023-03-30T14:27:14;9.70;;;2.05;;
20976;SDS011;10647;51.016;3.720;2023-03-30T14:29:45;13.68;;;2.55;;
20976;SDS011;10647;51.016;3.720;2023-03-30T14:32:15;8.40;;;2.08;;
20976;SDS011;10647;51.016;3.720;2023-03-30T14:34:49;9.60;;;1.95;;
20976;SDS011;10647;51.016;3.720;2023-03-30T14:37:19;12.30;;;2.20;;
20976;SDS011;10647;51.016;3.720;2023-03-30T14:39:52;20.77;;;3.05;;
20976;SDS011;10647;51.016;3.720;2023-03-30T14:42:24;9.10;;;1.82;;
20976;SDS011;10647;51.016;3.720;2023-03-30T14:44:54;13.05;;;2.12;;
20976;SDS011;10647;51.016;3.720;2023-03-30T14:47:23;8.95;;;1.60;;
20976;SDS011;10647;51.016;3.720;2023-03-30T14:49:53;7.70;;;1.60;;
20976;SDS011;10647;51.016;3.720;2023-03-30T14:52:31;11.33;;;2.25;;
20976;SDS011;10647;51.016;3.720;2023-03-30T14:54:59;10.48;;;1.90;;
20976;SDS011;10647;51.016;3.720;2023-03-30T14:57:28;6.97;;;1.47;;
20976;SDS011;10647;51.016;3.720;2023-03-30T14:59:59;4.30;;;1.20;;
20976;SDS011;10647;51.016;3.720;2023-03-30T15:02:39;11.68;;;2.50;;
20976;SDS011;10647;51.016;3.720;2023-03-30T15:05:07;10.08;;;2.20;;
20976;SDS011;10647;51.016;3.720;2023-03-30T15:07:35;6.85;;;1.65;;
20976;SDS011;10647;51.016;3.720;2023-03-30T15:10:05;9.68;;;1.82;;
20976;SDS011;10647;51.016;3.720;2023-03-30T15:12:36;8.70;;;1.52;;
20976;SDS011;10647;51.016;3.720;2023-03-30T15:15:10;9.73;;;2.25;;
20976;SDS011;10647;51.016;3.720;2023-03-30T15:17:39;7.60;;;1.92;;
20976;SDS011;10647;51.016;3.720;2023-03-30T15:20:09;12.00;;;2.35;;
20976;SDS011;10647;51.016;3.720;2023-03-30T15:22:49;11.30;;;2.02;;
20976;SDS011;10647;51.016;3.720;2023-03-30T15:25:17;14.65;;;2.50;;
20976;SDS011;10647;51.016;3.720;2023-03-30T15:27:43;11.60;;;2.08;;
20976;SDS011;10647;51.016;3.720;2023-03-30T15:30:18;12.03;;;2.12;;
20976;SDS011;10647;51.016;3.720;2023-03-30T15:32:44;13.15;;;2.75;;
20976;SDS011;10647;51.016;3.720;2023-03-30T15:37:53;11.53;;;2.30;;
20976;SDS011;10647;51.016;3.720;2023-03-30T15:40:27;12.05;;;2.42;;
20976;SDS011;10647;51.016;3.720;2023-03-30T15:45:55;11.93;;;2.25;;
20976;SDS011;10647;51.016;3.720;2023-03-30T15:48:30;13.35;;;2.65;;
20976;SDS011;10647;51.016;3.720;2023-03-30T15:51:06;13.30;;;2.52;;
20976;SDS011;10647;51.016;3.720;2023-03-30T15:56:36;12.90;;;2.27;;
20976;SDS011;10647;51.016;3.720;2023-03-30T15:59:18;16.82;;;2.75;;
20976;SDS011;10647;51.016;3.720;2023-03-30T16:01:48;12.88;;;2.25;;
20976;SDS011;10647;51.016;3.720;2023-03-30T16:04:21;14.47;;;2.77;;
20976;SDS011;10647;51.016;3.720;2023-03-30T16:06:50;12.80;;;2.35;;
20976;SDS011;10647;51.016;3.720;2023-03-30T16:09:18;13.10;;;2.12;;
20976;SDS011;10647;51.016;3.720;2023-03-30T16:11:49;12.47;;;2.60;;
20976;SDS011;10647;51.016;3.720;2023-03-30T16:14:17;18.35;;;2.90;;
20976;SDS011;10647;51.016;3.720;2023-03-30T16:16:46;9.73;;;2.05;;
20976;SDS011;10647;51.016;3.720;2023-03-30T16:19:16;16.73;;;2.87;;
20976;SDS011;10647;51.016;3.720;2023-03-30T16:21:44;14.03;;;2.22;;
20976;SDS011;10647;51.016;3.720;2023-03-30T16:24:14;15.68;;;2.62;;
20976;SDS011;10647;51.016;3.720;2023-03-30T16:26:41;19.62;;;3.00;;
20976;SDS011;10647;51.016;3.720;2023-03-30T16:29:19;14.70;;;2.47;;
20976;SDS011;10647;51.016;3.720;2023-03-30T16:31:49;19.95;;;3.15;;
20976;SDS011;10647;51.016;3.720;2023-03-30T16:34:17;13.72;;;2.45;;
20976;SDS011;10647;51.016;3.720;2023-03-30T16:39:19;13.10;;;2.85;;
20976;SDS011;10647;51.016;3.720;2023-03-30T16:41:49;14.00;;;3.20;;
20976;SDS011;10647;51.016;3.720;2023-03-30T16:44:19;12.13;;;2.02;;
20976;SDS011;10647;51.016;3.720;2023-03-30T16:46:54;17.85;;;2.50;;
20976;SDS011;10647;51.016;3.720;2023-03-30T16:49:23;13.20;;;2.50;;
20976;SDS011;10647;51.016;3.720;2023-03-30T16:51:51;12.13;;;2.10;;
20976;SDS011;10647;51.016;3.720;2023-03-30T16:54:19;13.83;;;2.42;;
20976;SDS011;10647;51.016;3.720;2023-03-30T16:56:47;16.05;;;2.58;;
20976;SDS011;10647;51.016;3.720;2023-03-30T16:59:19;15.48;;;2.60;;
20976;SDS011;10647;51.016;3.720;2023-03-30T17:01:47;13.60;;;2.60;;
20976;SDS011;10647;51.016;3.720;2023-03-30T17:04:16;16.23;;;2.20;;
20976;SDS011;10647;51.016;3.720;2023-03-30T17:06:44;17.37;;;2.87;;
20976;SDS011;10647;51.016;3.720;2023-03-30T17:09:13;13.35;;;2.15;;
20976;SDS011;10647;51.016;3.720;2023-03-30T17:11:42;19.90;;;3.50;;
20976;SDS011;10647;51.016;3.720;2023-03-30T17:14:14;20.08;;;3.20;;